Portada
METAR-TAF:

METAR-TAF

Aeroports :

Aeroport del Comtat de Rowan

Salisbury, Carolina del Nord, Estats Units d'Amèrica

latitud: 35-39N, longitud: 080-31W, altitud: 236 m

Observació

L'informe es va fer fa 37 minuts, a les 12:40 UTC
Vent 9 kt del Sud/Sud-Oest
Temperatura 23°C
Humitat 78%
Pressió 1018 hPa
Visibilitat: 16.1 km
Núvols disperses a una alçada de 6500 ft
Núvols disperses a una alçada de 7500 ft

METAR: KRUQ 191240Z AUTO 21009KT 10SM SCT065 SCT075 23/19 A3007 RMK AO2 T02250187

Hora: 09:17 (13:17 UTC)


TAF: manca

Observacions i pronòstics meteorològics de més de 4000 aeroports (METAR i TAF).

Les estacions disponibles són els punts grocs i vermells al mapa.

Posi el ratolí al punt desitjat per veure el nom de l'estació.

Feu clic per veure les observacions i els pronòstics meteorològics.

Per canviar el mapa: feu clic els botons verds amb una creu de color negre per apropar; al botó verd amb un guió per allunyar la imatge; o en les fletxes verdes per a mapes adjacents.


METAR-TAF: